createdAt,value
2022-11-06T00:00:36.265Z,4.40
2022-11-06T00:03:04.319Z,4.63
2022-11-06T00:05:50.471Z,3.83
2022-11-06T00:08:26.695Z,5.20
2022-11-06T00:10:53.988Z,4.65
2022-11-06T00:13:21.233Z,4.65
2022-11-06T00:15:48.531Z,4.90
2022-11-06T00:18:15.951Z,4.13
2022-11-06T00:20:43.365Z,4.28
2022-11-06T00:23:10.938Z,4.53
2022-11-06T00:25:40.640Z,4.28
2022-11-06T00:28:07.871Z,4.63
2022-11-06T00:30:35.232Z,4.45
2022-11-06T00:33:02.435Z,4.20
2022-11-06T00:35:29.894Z,3.97
2022-11-06T00:37:57.289Z,4.32
2022-11-06T00:40:24.514Z,3.88
2022-11-06T00:42:54.225Z,4.28
2022-11-06T00:45:21.497Z,3.67
2022-11-06T00:47:48.718Z,4.55
2022-11-06T00:50:16.065Z,4.47
2022-11-06T00:52:43.238Z,4.43
2022-11-06T00:55:10.602Z,3.67
2022-11-06T00:57:37.856Z,3.55
2022-11-06T01:00:05.381Z,3.92
2022-11-06T01:02:32.814Z,4.25
2022-11-06T01:05:00.228Z,3.65
2022-11-06T01:07:27.624Z,4.25
2022-11-06T01:09:54.977Z,3.85
2022-11-06T01:12:22.216Z,3.92
2022-11-06T01:14:49.594Z,4.68
2022-11-06T01:17:17.202Z,4.28
2022-11-06T01:19:44.555Z,4.72
2022-11-06T01:22:11.787Z,4.30
2022-11-06T01:24:39.287Z,4.78
2022-11-06T01:29:53.961Z,4.20
2022-11-06T01:32:21.193Z,4.28
2022-11-06T01:34:49.828Z,4.35
2022-11-06T01:37:17.132Z,4.90
2022-11-06T01:39:44.409Z,5.35
2022-11-06T01:42:12.753Z,5.88
2022-11-06T01:44:42.886Z,5.15
2022-11-06T01:47:20.810Z,4.60
2022-11-06T01:49:48.369Z,5.82
2022-11-06T01:52:15.978Z,4.47
2022-11-06T01:54:44.259Z,5.38
2022-11-06T01:57:11.989Z,4.95
2022-11-06T01:59:42.514Z,4.68
2022-11-06T02:02:10.001Z,5.57
2022-11-06T02:04:38.756Z,5.30
2022-11-06T02:07:06.301Z,5.25
2022-11-06T02:09:34.234Z,5.30
2022-11-06T02:12:20.202Z,5.43
2022-11-06T02:14:53.713Z,5.20
2022-11-06T02:17:30.864Z,5.30
2022-11-06T02:20:10.522Z,5.18
2022-11-06T02:22:46.508Z,5.07
2022-11-06T02:25:16.589Z,4.50
2022-11-06T02:27:49.130Z,4.80
2022-11-06T02:30:16.833Z,4.30
2022-11-06T02:32:49.674Z,4.32
2022-11-06T02:35:35.560Z,4.80
2022-11-06T02:38:08.418Z,4.50
2022-11-06T02:40:38.146Z,4.72
2022-11-06T02:43:07.531Z,4.82
2022-11-06T02:45:40.205Z,4.72
2022-11-06T02:48:10.822Z,5.07
2022-11-06T02:50:44.597Z,4.78
2022-11-06T02:53:14.377Z,4.97
2022-11-06T02:55:44.375Z,4.25
2022-11-06T02:58:14.107Z,3.97
2022-11-06T03:00:42.864Z,4.68
2022-11-06T03:03:13.219Z,4.50
2022-11-06T03:05:47.164Z,4.88
2022-11-06T03:08:21.837Z,5.47
2022-11-06T03:11:13.366Z,4.25
2022-11-06T03:13:40.776Z,4.57
2022-11-06T03:16:28.863Z,4.38
2022-11-06T03:18:56.297Z,4.15
2022-11-06T03:21:38.941Z,4.70
2022-11-06T03:24:13.739Z,4.80
2022-11-06T03:26:44.695Z,4.45
2022-11-06T03:29:41.526Z,4.85
2022-11-06T03:32:14.664Z,4.57
2022-11-06T03:34:53.356Z,4.47
2022-11-06T03:37:24.213Z,4.82
2022-11-06T03:39:54.135Z,4.57
2022-11-06T03:42:23.490Z,5.18
2022-11-06T03:44:53.500Z,4.78
2022-11-06T03:47:26.864Z,4.70
2022-11-06T03:50:06.264Z,4.40
2022-11-06T03:52:36.143Z,4.70
2022-11-06T03:55:15.716Z,4.45
2022-11-06T03:57:48.995Z,4.63
2022-11-06T04:00:17.474Z,5.15
2022-11-06T04:02:47.649Z,4.30
2022-11-06T04:05:20.461Z,4.03
2022-11-06T04:08:08.748Z,4.35
2022-11-06T04:10:57.210Z,3.90
2022-11-06T04:13:43.421Z,4.03
2022-11-06T04:16:12.180Z,4.43
2022-11-06T04:18:39.419Z,3.92
2022-11-06T04:21:25.035Z,4.80
2022-11-06T04:24:29.684Z,4.80
2022-11-06T04:27:02.995Z,3.65
2022-11-06T04:29:30.249Z,4.80
2022-11-06T04:32:15.674Z,3.63
2022-11-06T04:34:45.938Z,3.95
2022-11-06T04:37:17.826Z,3.47
2022-11-06T04:39:51.367Z,3.60
2022-11-06T04:42:30.906Z,4.05
2022-11-06T04:45:01.884Z,4.22
2022-11-06T04:47:29.799Z,4.47
2022-11-06T04:49:58.912Z,4.50
2022-11-06T04:52:27.424Z,4.05
2022-11-06T04:54:55.632Z,4.05
2022-11-06T04:57:23.881Z,3.78
2022-11-06T04:59:51.121Z,3.50
2022-11-06T05:02:18.916Z,4.15
2022-11-06T05:04:46.156Z,3.85
2022-11-06T05:07:14.419Z,3.88
2022-11-06T05:09:42.169Z,3.90
2022-11-06T05:12:09.451Z,4.10
2022-11-06T05:14:36.684Z,4.75
2022-11-06T05:17:03.937Z,3.63
2022-11-06T05:19:31.160Z,3.38
2022-11-06T05:22:17.561Z,3.83
2022-11-06T05:24:44.972Z,4.20
2022-11-06T05:27:12.326Z,3.50
2022-11-06T05:29:39.574Z,3.53
2022-11-06T05:32:06.892Z,3.17
2022-11-06T05:34:34.313Z,3.58
2022-11-06T05:37:01.514Z,3.38
2022-11-06T05:39:28.901Z,3.78
2022-11-06T05:41:56.236Z,3.33
2022-11-06T05:44:23.618Z,3.33
2022-11-06T05:46:50.876Z,3.25
2022-11-06T05:49:19.068Z,3.00
2022-11-06T05:51:46.469Z,3.28
2022-11-06T05:54:13.792Z,3.08
2022-11-06T05:56:41.030Z,3.15
2022-11-06T05:59:08.306Z,2.92
2022-11-06T06:01:35.996Z,3.08
2022-11-06T06:04:03.587Z,2.97
2022-11-06T06:06:30.913Z,2.90
2022-11-06T06:08:58.172Z,2.78
2022-11-06T06:11:25.540Z,2.97
2022-11-06T06:13:52.830Z,2.88
2022-11-06T06:16:20.088Z,3.42
2022-11-06T06:18:49.671Z,3.17
2022-11-06T06:21:16.883Z,2.78
2022-11-06T06:23:44.174Z,2.38
2022-11-06T06:26:11.511Z,3.05
2022-11-06T06:28:38.907Z,2.60
2022-11-06T06:31:06.836Z,2.67
2022-11-06T06:33:34.491Z,2.80
2022-11-06T06:36:05.327Z,2.40
2022-11-06T06:38:32.617Z,2.90
2022-11-06T06:41:06.863Z,2.67
2022-11-06T06:43:34.475Z,2.85
2022-11-06T06:46:02.795Z,2.55
2022-11-06T06:48:30.160Z,2.95
2022-11-06T06:50:58.303Z,2.35
2022-11-06T06:53:25.697Z,2.38
2022-11-06T06:55:52.993Z,2.80
2022-11-06T06:58:21.646Z,2.15
2022-11-06T07:00:49.121Z,2.05
2022-11-06T07:03:16.468Z,2.97
2022-11-06T07:05:44.266Z,3.35
2022-11-06T07:08:11.810Z,2.20
2022-11-06T07:10:39.262Z,2.25
2022-11-06T07:13:06.549Z,2.10
2022-11-06T07:15:34.014Z,2.10
2022-11-06T07:18:07.663Z,1.77
2022-11-06T07:20:35.458Z,1.83
2022-11-06T07:23:06.818Z,2.00
2022-11-06T07:25:34.446Z,1.98
2022-11-06T07:28:05.662Z,2.45
2022-11-06T07:30:33.844Z,2.55
2022-11-06T07:33:01.959Z,2.33
2022-11-06T07:35:29.446Z,2.10
2022-11-06T07:37:56.683Z,2.35
2022-11-06T07:40:24.253Z,2.33
2022-11-06T07:42:51.489Z,2.75
2022-11-06T07:45:19.958Z,1.83
2022-11-06T07:47:47.154Z,2.60
2022-11-06T07:50:14.459Z,2.45
2022-11-06T07:52:41.718Z,2.45
2022-11-06T07:55:09.564Z,2.42
2022-11-06T07:57:37.784Z,2.35
2022-11-06T08:00:06.000Z,2.40
2022-11-06T08:05:07.353Z,1.80
2022-11-06T08:07:34.543Z,2.10
2022-11-06T08:10:01.911Z,2.50
2022-11-06T08:12:29.192Z,2.42
2022-11-06T08:14:56.644Z,2.00
2022-11-06T08:17:23.912Z,2.08
2022-11-06T08:19:51.292Z,2.53
2022-11-06T08:22:19.239Z,2.00
2022-11-06T08:24:46.796Z,2.35
2022-11-06T08:27:14.022Z,2.15
2022-11-06T08:29:41.883Z,2.28
2022-11-06T08:32:09.719Z,2.22
2022-11-06T08:34:36.983Z,2.28
2022-11-06T08:37:04.233Z,2.05
2022-11-06T08:39:31.508Z,2.53
2022-11-06T08:41:58.717Z,2.10
2022-11-06T08:44:26.091Z,2.85
2022-11-06T08:46:53.411Z,2.10
2022-11-06T08:49:20.682Z,2.45
2022-11-06T08:51:47.905Z,2.10
2022-11-06T08:54:15.304Z,2.50
2022-11-06T08:56:43.103Z,2.40
2022-11-06T08:59:10.383Z,2.35
2022-11-06T09:01:37.742Z,2.78
2022-11-06T09:04:05.987Z,2.83
2022-11-06T09:06:33.409Z,2.63
2022-11-06T09:09:00.913Z,1.95
2022-11-06T09:11:32.823Z,2.45
2022-11-06T09:14:00.202Z,2.88
2022-11-06T09:16:27.434Z,2.13
2022-11-06T09:18:55.726Z,2.03
2022-11-06T09:21:23.610Z,2.15
2022-11-06T09:23:51.055Z,2.20
2022-11-06T09:26:18.589Z,1.88
2022-11-06T09:28:46.831Z,2.25
2022-11-06T09:31:14.412Z,2.00
2022-11-06T09:33:41.908Z,2.28
2022-11-06T09:36:09.242Z,1.88
2022-11-06T09:38:36.592Z,2.35
2022-11-06T09:41:04.256Z,2.55
2022-11-06T09:43:58.650Z,2.78
2022-11-06T09:46:27.188Z,2.53
2022-11-06T09:48:57.648Z,2.13
2022-11-06T09:51:30.825Z,2.05
2022-11-06T09:54:16.414Z,2.35
2022-11-06T09:56:44.575Z,2.05
2022-11-06T09:59:13.712Z,3.72
2022-11-06T10:01:46.461Z,2.33
2022-11-06T10:04:22.186Z,3.42
2022-11-06T10:06:49.585Z,1.95
2022-11-06T10:09:17.888Z,3.53
2022-11-06T10:11:45.184Z,2.50
2022-11-06T10:14:27.802Z,2.70
2022-11-06T10:16:55.533Z,2.85
2022-11-06T10:19:42.512Z,2.15
2022-11-06T10:22:12.803Z,2.30
2022-11-06T10:24:46.558Z,3.17
2022-11-06T10:27:17.328Z,2.72
2022-11-06T10:29:54.240Z,3.03
2022-11-06T10:32:40.209Z,3.22
2022-11-06T10:35:23.427Z,2.13
2022-11-06T10:37:54.721Z,2.28
2022-11-06T10:40:30.119Z,2.25
2022-11-06T10:43:01.941Z,2.10
2022-11-06T10:45:29.781Z,2.35
2022-11-06T10:48:00.117Z,2.92
2022-11-06T10:50:34.522Z,1.85
2022-11-06T10:53:10.010Z,2.15
2022-11-06T10:55:40.369Z,2.58
2022-11-06T10:58:07.640Z,2.10
2022-11-06T11:00:35.383Z,2.10
2022-11-06T11:03:04.276Z,2.00
2022-11-06T11:05:38.364Z,2.17
2022-11-06T11:08:05.818Z,2.33
2022-11-06T11:10:34.400Z,2.40
2022-11-06T11:13:08.685Z,2.30
2022-11-06T11:15:43.699Z,2.30
2022-11-06T11:18:14.190Z,2.03
2022-11-06T11:20:42.859Z,1.98
2022-11-06T11:23:18.193Z,2.17
2022-11-06T11:25:50.018Z,2.33
2022-11-06T11:28:29.160Z,2.35
2022-11-06T11:31:05.474Z,1.88
2022-11-06T11:33:33.308Z,2.35
2022-11-06T11:36:02.288Z,2.85
2022-11-06T11:38:29.992Z,1.92
2022-11-06T11:41:12.382Z,2.25
2022-11-06T11:43:40.823Z,2.55
2022-11-06T11:46:10.825Z,2.22
2022-11-06T11:48:44.363Z,2.05
2022-11-06T11:51:17.781Z,1.65
2022-11-06T11:53:45.246Z,1.85
2022-11-06T11:56:31.008Z,2.45
2022-11-06T11:59:05.026Z,1.85
2022-11-06T12:01:41.565Z,1.80
2022-11-06T12:04:14.137Z,1.77
2022-11-06T12:06:56.735Z,2.10
2022-11-06T12:09:24.560Z,2.22
2022-11-06T12:11:53.313Z,2.13
2022-11-06T12:14:23.327Z,2.90
2022-11-06T12:16:52.865Z,2.20
2022-11-06T12:19:21.146Z,2.60
2022-11-06T12:21:51.969Z,2.35
2022-11-06T12:24:21.799Z,2.35
2022-11-06T12:26:54.755Z,2.00
2022-11-06T12:29:37.244Z,1.95
2022-11-06T12:32:11.104Z,2.00
2022-11-06T12:34:40.361Z,2.43
2022-11-06T12:37:19.723Z,2.38
2022-11-06T12:39:52.510Z,2.00
2022-11-06T12:42:21.771Z,2.30
2022-11-06T12:44:49.071Z,2.30
2022-11-06T12:47:41.173Z,1.60
2022-11-06T12:50:29.701Z,1.90
2022-11-06T12:52:58.941Z,1.92
2022-11-06T12:55:34.155Z,2.13
2022-11-06T12:58:17.827Z,3.08
2022-11-06T13:00:53.304Z,2.38
2022-11-06T13:03:41.284Z,1.60
2022-11-06T13:06:17.054Z,2.45
2022-11-06T13:08:55.735Z,2.50
2022-11-06T13:11:29.779Z,2.70
2022-11-06T13:14:16.662Z,2.67
2022-11-06T13:16:46.772Z,2.67
2022-11-06T13:19:32.169Z,1.88
2022-11-06T13:22:18.029Z,1.67
2022-11-06T13:24:53.251Z,2.30
2022-11-06T13:27:26.447Z,1.48
2022-11-06T13:29:57.361Z,1.85
2022-11-06T13:32:25.536Z,3.17
2022-11-06T13:34:54.620Z,1.83
2022-11-06T13:37:26.442Z,1.73
2022-11-06T13:40:16.854Z,1.67
2022-11-06T13:42:48.872Z,2.38
2022-11-06T13:45:17.204Z,1.67
2022-11-06T13:48:03.199Z,2.17
2022-11-06T13:50:56.707Z,2.00
2022-11-06T13:53:24.664Z,2.38
2022-11-06T13:56:07.179Z,2.13
2022-11-06T13:58:40.816Z,2.10
2022-11-06T14:01:17.655Z,2.08
2022-11-06T14:03:48.063Z,2.28
2022-11-06T14:06:25.833Z,1.63
2022-11-06T14:08:54.476Z,2.45
2022-11-06T14:11:30.833Z,2.30
2022-11-06T14:14:02.914Z,1.83
2022-11-06T14:16:34.371Z,1.60
2022-11-06T14:19:01.687Z,1.83
2022-11-06T14:21:38.308Z,2.42
2022-11-06T14:24:06.875Z,2.60
2022-11-06T14:26:40.780Z,2.53
2022-11-06T14:29:26.785Z,2.10
2022-11-06T14:32:13.495Z,1.83
2022-11-06T14:34:42.252Z,2.05
2022-11-06T14:37:18.723Z,2.10
2022-11-06T14:39:55.375Z,2.85
2022-11-06T14:42:36.413Z,2.13
2022-11-06T14:45:08.502Z,2.25
2022-11-06T14:47:37.354Z,2.95
2022-11-06T14:50:06.983Z,2.60
2022-11-06T14:52:44.397Z,1.98
2022-11-06T14:55:22.661Z,2.53
2022-11-06T14:57:52.865Z,2.63
2022-11-06T15:00:37.136Z,2.28
2022-11-06T15:03:06.308Z,2.40
2022-11-06T15:05:41.842Z,2.35
2022-11-06T15:08:10.151Z,2.50
2022-11-06T15:10:43.403Z,2.30
2022-11-06T15:13:21.143Z,2.10
2022-11-06T15:15:52.948Z,2.08
2022-11-06T15:18:24.868Z,2.92
2022-11-06T15:20:54.309Z,2.15
2022-11-06T15:23:25.913Z,2.25
2022-11-06T15:26:04.574Z,2.17
2022-11-06T15:28:40.105Z,1.83
2022-11-06T15:31:09.215Z,1.95
2022-11-06T15:33:42.573Z,2.20
2022-11-06T15:36:13.808Z,2.30
2022-11-06T15:38:42.277Z,2.25
2022-11-06T15:41:12.840Z,2.13
2022-11-06T15:43:43.706Z,2.10
2022-11-06T15:46:14.112Z,2.35
2022-11-06T15:48:41.390Z,2.10
2022-11-06T15:51:28.202Z,2.22
2022-11-06T15:53:55.755Z,2.33
2022-11-06T15:56:29.665Z,2.40
2022-11-06T15:59:07.398Z,1.88
2022-11-06T16:01:36.285Z,2.42
2022-11-06T16:04:15.408Z,1.90
2022-11-06T16:06:43.761Z,1.92
2022-11-06T16:09:16.317Z,1.85
2022-11-06T16:11:47.435Z,2.50
2022-11-06T16:14:15.520Z,2.40
2022-11-06T16:16:44.975Z,2.15
2022-11-06T16:19:25.601Z,2.00
2022-11-06T16:21:57.010Z,2.45
2022-11-06T16:24:24.725Z,2.70
2022-11-06T16:26:52.620Z,1.98
2022-11-06T16:29:24.576Z,3.13
2022-11-06T16:32:02.358Z,3.47
2022-11-06T16:34:32.373Z,2.47
2022-11-06T16:37:00.941Z,2.20
2022-11-06T16:39:47.711Z,2.22
2022-11-06T16:42:21.720Z,2.72
2022-11-06T16:44:58.654Z,2.50
2022-11-06T16:47:25.959Z,3.75
2022-11-06T16:49:54.725Z,3.72
2022-11-06T16:52:41.209Z,3.13
2022-11-06T16:55:17.402Z,3.25
2022-11-06T16:57:58.454Z,3.08
2022-11-06T17:00:25.938Z,3.10
2022-11-06T17:02:54.334Z,3.42
2022-11-06T17:05:26.244Z,2.53
2022-11-06T17:08:12.467Z,2.75
2022-11-06T17:10:40.010Z,2.78
2022-11-06T17:13:25.906Z,3.03
2022-11-06T17:15:58.599Z,2.85
2022-11-06T17:18:36.384Z,3.08
2022-11-06T17:21:05.713Z,2.60
2022-11-06T17:23:33.479Z,3.38
2022-11-06T17:26:19.604Z,3.90
2022-11-06T17:28:49.768Z,3.20
2022-11-06T17:31:18.376Z,3.75
2022-11-06T17:33:45.915Z,3.63
2022-11-06T17:36:16.247Z,3.30
2022-11-06T17:38:43.599Z,3.65
2022-11-06T17:41:10.856Z,3.58
2022-11-06T17:43:38.428Z,4.18
2022-11-06T17:46:05.870Z,3.60
2022-11-06T17:48:33.151Z,3.65
2022-11-06T17:51:19.962Z,4.18
2022-11-06T17:53:49.472Z,4.40
2022-11-06T17:56:16.671Z,3.53
2022-11-06T17:58:43.923Z,4.35
2022-11-06T18:01:11.922Z,4.03
2022-11-06T18:03:44.382Z,4.35
2022-11-06T18:06:13.059Z,3.97
2022-11-06T18:08:40.539Z,3.92
2022-11-06T18:11:08.411Z,4.00
2022-11-06T18:13:36.229Z,3.97
2022-11-06T18:16:05.901Z,4.45
2022-11-06T18:18:35.081Z,3.70
2022-11-06T18:21:02.567Z,3.80
2022-11-06T18:23:29.787Z,3.88
2022-11-06T18:25:57.835Z,3.92
2022-11-06T18:28:28.418Z,3.78
2022-11-06T18:30:55.886Z,3.88
2022-11-06T18:33:23.267Z,4.78
2022-11-06T18:35:50.542Z,4.00
2022-11-06T18:38:17.787Z,4.53
2022-11-06T18:40:50.373Z,4.22
2022-11-06T18:43:20.080Z,4.00
2022-11-06T18:45:47.388Z,3.50
2022-11-06T18:48:18.479Z,3.65
2022-11-06T18:50:48.891Z,3.33
2022-11-06T18:53:16.137Z,4.30
2022-11-06T18:55:44.931Z,3.67
2022-11-06T18:58:12.836Z,4.47
2022-11-06T19:00:40.358Z,3.80
2022-11-06T19:03:07.690Z,3.95
2022-11-06T19:05:35.837Z,4.65
2022-11-06T19:08:03.822Z,4.40
2022-11-06T19:10:32.506Z,4.40
2022-11-06T19:13:00.108Z,4.55
2022-11-06T19:15:27.490Z,4.28
2022-11-06T19:17:54.996Z,4.68
2022-11-06T19:20:25.348Z,4.50
2022-11-06T19:22:53.220Z,5.07
2022-11-06T19:25:20.761Z,4.30
2022-11-06T19:27:48.461Z,4.63
2022-11-06T19:30:15.923Z,4.25
2022-11-06T19:32:43.335Z,4.28
2022-11-06T19:35:14.283Z,4.57
2022-11-06T19:37:41.935Z,5.00
2022-11-06T19:40:09.503Z,4.50
2022-11-06T19:42:36.998Z,4.35
2022-11-06T19:45:05.668Z,4.00
2022-11-06T19:47:34.443Z,4.15
2022-11-06T19:50:03.480Z,4.88
2022-11-06T19:52:42.818Z,4.40
2022-11-06T19:55:26.580Z,4.30
2022-11-06T19:57:57.983Z,3.80
2022-11-06T20:00:25.486Z,3.75
2022-11-06T20:02:52.743Z,4.38
2022-11-06T20:05:20.044Z,3.58
2022-11-06T20:07:47.417Z,4.00
2022-11-06T20:10:14.751Z,4.25
2022-11-06T20:12:41.936Z,4.50
2022-11-06T20:15:09.638Z,4.00
2022-11-06T20:17:36.850Z,3.72
2022-11-06T20:20:04.361Z,3.70
2022-11-06T20:22:31.571Z,4.35
2022-11-06T20:24:58.848Z,4.15
2022-11-06T20:27:26.100Z,4.13
2022-11-06T20:29:53.880Z,4.72
2022-11-06T20:32:21.704Z,3.65
2022-11-06T20:34:48.950Z,3.75
2022-11-06T20:37:16.633Z,4.75
2022-11-06T20:39:43.924Z,3.70
2022-11-06T20:42:11.093Z,3.65
2022-11-06T20:44:39.347Z,3.67
2022-11-06T20:47:06.614Z,3.60
2022-11-06T20:49:33.886Z,3.35
2022-11-06T20:52:17.034Z,3.53
2022-11-06T20:54:47.432Z,3.70
2022-11-06T20:57:16.185Z,3.60
2022-11-06T20:59:43.438Z,3.38
2022-11-06T21:02:11.952Z,3.67
2022-11-06T21:04:39.681Z,3.75
2022-11-06T21:07:06.970Z,3.20
2022-11-06T21:09:34.292Z,2.85
2022-11-06T21:12:02.048Z,2.83
2022-11-06T21:14:29.804Z,2.80
2022-11-06T21:16:57.194Z,2.83
2022-11-06T21:19:24.614Z,3.10
2022-11-06T21:21:51.971Z,2.85
2022-11-06T21:24:19.233Z,2.90
2022-11-06T21:26:46.814Z,2.53
2022-11-06T21:29:14.061Z,2.83
2022-11-06T21:31:47.480Z,2.88
2022-11-06T21:34:17.177Z,2.75
2022-11-06T21:36:44.345Z,2.80
2022-11-06T21:39:14.178Z,2.80
2022-11-06T21:41:41.941Z,2.92
2022-11-06T21:44:09.249Z,2.88
2022-11-06T21:46:38.937Z,3.40
2022-11-06T21:49:08.712Z,3.25
2022-11-06T21:51:35.984Z,3.00
2022-11-06T21:54:22.006Z,2.97
2022-11-06T21:56:50.261Z,3.30
2022-11-06T21:59:18.726Z,2.80
2022-11-06T22:01:46.182Z,3.60
2022-11-06T22:04:13.612Z,3.42
2022-11-06T22:06:41.989Z,3.03
2022-11-06T22:09:09.956Z,2.90
2022-11-06T22:11:44.463Z,2.45
2022-11-06T22:14:15.810Z,3.25
2022-11-06T22:16:44.172Z,3.33
2022-11-06T22:19:12.180Z,2.85
2022-11-06T22:21:40.392Z,3.03
2022-11-06T22:24:08.296Z,2.95
2022-11-06T22:26:36.351Z,3.65
2022-11-06T22:29:06.225Z,3.20
2022-11-06T22:31:33.586Z,3.08
2022-11-06T22:34:00.909Z,3.17
2022-11-06T22:36:28.474Z,2.75
2022-11-06T22:38:56.701Z,3.15
2022-11-06T22:41:25.182Z,2.80
2022-11-06T22:43:52.953Z,2.85
2022-11-06T22:46:22.102Z,2.85
2022-11-06T22:48:49.605Z,2.80
2022-11-06T22:51:19.528Z,2.63
2022-11-06T22:53:46.886Z,3.15
2022-11-06T22:56:14.663Z,2.45
2022-11-06T22:58:42.584Z,2.63
2022-11-06T23:01:11.040Z,2.90
2022-11-06T23:03:38.736Z,2.65
2022-11-06T23:06:07.148Z,3.00
2022-11-06T23:08:34.928Z,2.72
2022-11-06T23:11:06.957Z,2.95
2022-11-06T23:13:34.269Z,2.42
2022-11-06T23:16:03.147Z,3.10
2022-11-06T23:18:30.527Z,2.72
2022-11-06T23:20:57.805Z,3.63
2022-11-06T23:23:25.513Z,2.78
2022-11-06T23:25:52.895Z,2.55
2022-11-06T23:28:20.698Z,2.75
2022-11-06T23:30:47.958Z,2.65
2022-11-06T23:33:15.720Z,3.00
2022-11-06T23:35:43.227Z,2.55
2022-11-06T23:38:10.534Z,2.58
2022-11-06T23:40:37.796Z,2.30
2022-11-06T23:43:05.130Z,2.00
2022-11-06T23:45:51.512Z,2.30
2022-11-06T23:48:18.996Z,2.67
2022-11-06T23:50:51.510Z,2.50
2022-11-06T23:53:18.820Z,2.75
2022-11-06T23:55:46.189Z,2.60
2022-11-06T23:58:13.491Z,2.10
